createdAt,value
2022-11-13T00:00:42.458Z,80.9
2022-11-13T00:02:48.273Z,79.3
2022-11-13T00:04:53.958Z,92.1
2022-11-13T00:06:59.914Z,58
2022-11-13T00:11:11.230Z,69.2
2022-11-13T00:17:31.570Z,46.3
2022-11-13T00:27:02.060Z,59.1
2022-11-13T00:33:38.023Z,52.7
2022-11-13T00:35:25.068Z,53.5
2022-11-13T00:37:30.765Z,49.8
2022-11-13T00:39:36.516Z,58.4
2022-11-13T00:41:45.322Z,56.5
2022-11-13T00:43:51.078Z,53.9
2022-11-13T00:45:56.832Z,54.8
2022-11-13T00:48:02.580Z,59.9
2022-11-13T00:50:08.315Z,75.7
2022-11-13T00:52:14.050Z,82.9
2022-11-13T00:54:19.769Z,80
2022-11-13T00:56:28.608Z,83.4
2022-11-13T00:58:34.351Z,79.1
2022-11-13T01:00:40.105Z,66.7
2022-11-13T01:02:45.837Z,58.9
2022-11-13T01:04:51.552Z,67.2
2022-11-13T01:06:57.362Z,66.7
2022-11-13T01:09:03.047Z,61.5
2022-11-13T01:11:11.889Z,52.5
2022-11-13T01:13:17.638Z,52.4
2022-11-13T01:15:23.517Z,61.7
2022-11-13T01:20:39.239Z,58.2
2022-11-13T01:26:59.519Z,51.9
2022-11-13T01:31:10.990Z,59.3
2022-11-13T01:35:22.462Z,57.4
2022-11-13T01:39:36.974Z,56.6
2022-11-13T01:41:42.682Z,63.7
2022-11-13T01:43:48.432Z,56.1
2022-11-13T01:45:54.152Z,56.4
2022-11-13T01:47:59.875Z,51.2
2022-11-13T01:50:05.588Z,44.6
2022-11-13T01:52:11.315Z,42.8
2022-11-13T01:54:20.110Z,43.2
2022-11-13T01:56:25.849Z,40.2
2022-11-13T01:58:31.583Z,41.5
2022-11-13T02:00:37.309Z,40.3
2022-11-13T02:02:42.999Z,36.3
2022-11-13T02:04:48.735Z,38.8
2022-11-13T02:06:56.273Z,57.5
2022-11-13T02:09:04.824Z,43.1
2022-11-13T02:11:10.543Z,40.2
2022-11-13T02:13:16.238Z,39.1
2022-11-13T02:14:20.658Z,47.9
2022-11-13T02:16:26.349Z,42.7
2022-11-13T02:18:32.101Z,45
2022-11-13T02:22:46.581Z,41.4
2022-11-13T02:31:09.313Z,33.3
2022-11-13T02:35:20.761Z,66.7
2022-11-13T02:37:29.547Z,51.7
2022-11-13T02:45:52.426Z,48
2022-11-13T02:50:03.841Z,42.4
2022-11-13T02:52:12.661Z,54.9
2022-11-13T02:54:18.354Z,45.4
2022-11-13T02:58:30.298Z,41
2022-11-13T03:06:55.878Z,48.1
2022-11-13T03:09:01.465Z,42.1
2022-11-13T03:13:31.028Z,41.3
2022-11-13T03:15:36.586Z,49.7
2022-11-13T03:17:42.305Z,47.5
2022-11-13T03:19:51.146Z,38.2
2022-11-13T03:21:56.835Z,55.2
2022-11-13T03:24:02.574Z,41.8
2022-11-13T03:26:08.267Z,52
2022-11-13T03:28:13.980Z,37
2022-11-13T03:30:19.663Z,51
2022-11-13T03:32:25.386Z,27.8
2022-11-13T03:34:34.179Z,32.2
2022-11-13T03:36:39.908Z,36.5
2022-11-13T03:38:45.618Z,28.1
2022-11-13T03:40:51.342Z,33.2
2022-11-13T03:42:57.049Z,27.5
2022-11-13T03:45:02.740Z,25.2
2022-11-13T03:47:08.415Z,29.5
2022-11-13T03:53:28.611Z,32.4
2022-11-13T03:57:40.028Z,34.1
2022-11-13T03:59:45.734Z,31.3
2022-11-13T04:01:51.477Z,42.7
2022-11-13T04:04:00.206Z,43.4
2022-11-13T04:06:05.925Z,34.4
2022-11-13T04:08:11.613Z,33.8
2022-11-13T04:09:16.024Z,37.6
2022-11-13T04:19:47.642Z,36.1
2022-11-13T04:21:53.291Z,31.2
2022-11-13T04:23:59.001Z,21.9
2022-11-13T04:26:04.699Z,26.5
2022-11-13T04:28:10.458Z,29.1
2022-11-13T04:30:16.130Z,44.7
2022-11-13T04:32:24.911Z,39.2
2022-11-13T04:34:30.590Z,31.1
2022-11-13T04:36:36.331Z,31.7
2022-11-13T04:38:41.983Z,37.7
2022-11-13T04:40:47.745Z,28.6
2022-11-13T04:42:53.385Z,28.3
2022-11-13T04:44:59.093Z,30.9
2022-11-13T04:47:07.864Z,33
2022-11-13T04:49:13.555Z,26.2
2022-11-13T04:51:19.260Z,37
2022-11-13T04:53:24.953Z,27.6
2022-11-13T04:55:30.633Z,30.2
2022-11-13T04:57:36.329Z,26.2
2022-11-13T04:59:42.037Z,30.8
2022-11-13T05:03:56.482Z,25.7
2022-11-13T05:07:06.617Z,26.8
2022-11-13T05:11:17.931Z,27.9
2022-11-13T05:13:23.613Z,34.8
2022-11-13T05:17:38.063Z,26.7
2022-11-13T05:19:43.730Z,50.1
2022-11-13T05:21:49.459Z,32.6
2022-11-13T05:23:55.115Z,31.3
2022-11-13T05:26:00.777Z,30.9
2022-11-13T05:30:15.227Z,26.8
2022-11-13T05:32:20.905Z,31.3
2022-11-13T05:34:26.593Z,30.1
2022-11-13T05:36:32.276Z,28.6
2022-11-13T05:40:43.618Z,23.6
2022-11-13T05:42:49.298Z,28.4
2022-11-13T05:44:58.063Z,32
2022-11-13T05:47:03.730Z,34.5
2022-11-13T05:49:09.395Z,32.8
2022-11-13T05:51:15.096Z,27.7
2022-11-13T05:53:20.731Z,31.2
2022-11-13T05:55:26.419Z,27.9
2022-11-13T05:57:32.074Z,33
2022-11-13T05:59:40.792Z,32.9
2022-11-13T06:01:46.542Z,31.8
2022-11-13T06:03:52.143Z,28.8
2022-11-13T06:04:56.753Z,42.4
2022-11-13T06:07:02.213Z,32.1
2022-11-13T06:09:07.843Z,38.9
2022-11-13T06:11:13.518Z,32.7
2022-11-13T06:13:22.242Z,37.8
2022-11-13T06:15:27.924Z,38.9
2022-11-13T06:17:33.622Z,40.6
2022-11-13T06:19:39.256Z,32
2022-11-13T06:21:44.916Z,35
2022-11-13T06:23:50.592Z,29.3
2022-11-13T06:25:56.238Z,37.2
2022-11-13T06:28:05.026Z,35.1
2022-11-13T06:30:10.681Z,34.4
2022-11-13T06:32:16.347Z,33.9
2022-11-13T06:34:22.007Z,35.6
2022-11-13T06:36:27.675Z,36.3
2022-11-13T06:38:33.463Z,35.5
2022-11-13T06:40:38.997Z,34.6
2022-11-13T06:42:47.761Z,38.7
2022-11-13T06:44:53.445Z,37.9
2022-11-13T06:46:59.095Z,40.3
2022-11-13T06:49:04.748Z,32.8
2022-11-13T06:51:10.418Z,38.7
2022-11-13T06:53:16.096Z,36.9
2022-11-13T06:55:21.751Z,31
2022-11-13T06:57:30.528Z,45.7
2022-11-13T06:59:36.167Z,40.2
2022-11-13T07:01:41.849Z,37.4
2022-11-13T07:04:05.943Z,39
2022-11-13T07:08:17.262Z,30.8
2022-11-13T07:10:25.968Z,35.9
2022-11-13T07:12:31.631Z,36.3
2022-11-13T07:14:37.283Z,31.9
2022-11-13T07:17:04.384Z,39.8
2022-11-13T07:18:48.652Z,34.3
2022-11-13T07:20:54.279Z,31.3
2022-11-13T07:22:59.900Z,39.1
2022-11-13T07:25:08.669Z,38.6
2022-11-13T07:27:14.330Z,34.4
2022-11-13T07:29:20.066Z,29.9
2022-11-13T07:31:25.663Z,32.9
2022-11-13T07:33:31.314Z,30
2022-11-13T07:35:36.987Z,35.9
2022-11-13T07:37:42.627Z,33.7
2022-11-13T07:39:51.397Z,29.1
2022-11-13T07:48:14.068Z,36.6
2022-11-13T07:50:19.721Z,37.4
2022-11-13T07:54:34.151Z,34
2022-11-13T07:56:39.831Z,37.9
2022-11-13T07:58:45.499Z,39.1
2022-11-13T07:59:49.877Z,42.8
2022-11-13T08:01:55.577Z,49.8
2022-11-13T08:04:01.254Z,42.1
2022-11-13T08:06:06.975Z,40.6
2022-11-13T08:08:17.365Z,50.8
2022-11-13T08:10:23.136Z,48.2
2022-11-13T08:12:28.840Z,41.3
2022-11-13T08:14:34.575Z,38.8
2022-11-13T08:16:40.343Z,37.6
2022-11-13T08:18:46.094Z,34.3
2022-11-13T08:23:00.653Z,33
2022-11-13T08:25:06.390Z,33.9
2022-11-13T08:27:12.139Z,28.6
2022-11-13T08:29:17.883Z,23.8
2022-11-13T08:31:23.609Z,27.6
2022-11-13T08:33:29.351Z,25.8
2022-11-13T08:35:35.106Z,31.4
2022-11-13T08:37:43.929Z,29.2
2022-11-13T08:39:49.683Z,27.3
2022-11-13T08:41:55.433Z,31.4
2022-11-13T08:44:01.170Z,29.4
2022-11-13T08:46:06.901Z,24.1
2022-11-13T08:48:12.639Z,22.2
2022-11-13T08:50:18.394Z,24.1
2022-11-13T08:52:27.201Z,25.9
2022-11-13T08:54:32.923Z,30.9
2022-11-13T08:56:38.667Z,35.3
2022-11-13T08:59:48.819Z,26
2022-11-13T09:01:54.545Z,28.1
2022-11-13T09:04:00.396Z,23.9
2022-11-13T09:06:09.044Z,30
2022-11-13T09:08:14.786Z,39.4
2022-11-13T09:10:20.502Z,26.1
2022-11-13T09:12:26.261Z,36
2022-11-13T09:14:32.003Z,22.3
2022-11-13T09:16:37.712Z,36.4
2022-11-13T09:18:43.448Z,35.9
2022-11-13T09:20:52.318Z,33.7
2022-11-13T09:22:58.142Z,32.4
2022-11-13T09:25:03.774Z,30.2
2022-11-13T09:27:09.521Z,33.3
2022-11-13T09:29:15.271Z,27.3
2022-11-13T09:31:21.034Z,23.5
2022-11-13T09:33:26.785Z,46.2
2022-11-13T09:35:35.634Z,30
2022-11-13T09:37:41.398Z,25.4
2022-11-13T09:39:47.155Z,30.4
2022-11-13T09:41:52.931Z,23.3
2022-11-13T09:44:00.161Z,30
2022-11-13T09:46:04.483Z,27.1
2022-11-13T09:50:19.129Z,27.2
2022-11-13T09:52:24.885Z,23.9
2022-11-13T09:54:30.667Z,22.9
2022-11-13T09:55:35.104Z,26
2022-11-13T09:57:40.858Z,27.7
2022-11-13T09:59:46.643Z,21.9
2022-11-13T10:01:52.451Z,21.8
2022-11-13T10:04:03.926Z,29.5
2022-11-13T10:06:07.081Z,24.1
2022-11-13T10:08:12.879Z,25.5
2022-11-13T10:10:18.645Z,20.4
2022-11-13T10:12:24.431Z,24.6
2022-11-13T10:14:30.248Z,25.4
2022-11-13T10:16:36.047Z,21
2022-11-13T10:18:44.925Z,20.8
2022-11-13T10:20:50.717Z,18.6
2022-11-13T10:22:56.517Z,21.7
2022-11-13T10:25:02.293Z,26.8
2022-11-13T10:27:08.097Z,19.1
2022-11-13T10:29:14.040Z,21.1
2022-11-13T10:31:19.708Z,27.6
2022-11-13T10:33:28.926Z,18.5
2022-11-13T10:35:34.410Z,17
2022-11-13T10:37:40.228Z,19.9
2022-11-13T10:39:46.015Z,20.2
2022-11-13T10:41:51.829Z,22.5
2022-11-13T10:43:57.639Z,18.9
2022-11-13T10:46:03.465Z,16.6
2022-11-13T10:48:12.382Z,24.1
2022-11-13T10:50:18.208Z,25.9
2022-11-13T10:52:24.013Z,17.9
2022-11-13T10:54:55.544Z,20.5
2022-11-13T11:01:16.061Z,21.4
2022-11-13T11:07:33.355Z,16.9
2022-11-13T11:11:44.865Z,17.1
2022-11-13T11:13:50.684Z,16.3
2022-11-13T11:15:59.624Z,18.2
2022-11-13T11:18:05.452Z,14
2022-11-13T11:20:11.281Z,13.5
2022-11-13T11:22:17.021Z,15.1
2022-11-13T11:24:22.753Z,17.7
2022-11-13T11:26:28.641Z,12.4
2022-11-13T11:28:34.336Z,23
2022-11-13T11:30:43.045Z,21.6
2022-11-13T11:32:48.797Z,13.6
2022-11-13T11:34:58.968Z,19.7
2022-11-13T11:37:00.290Z,14.9
2022-11-13T11:45:26.263Z,21.6
2022-11-13T11:47:32.016Z,10
2022-11-13T11:49:37.749Z,14.4
2022-11-13T11:52:47.883Z,10.2
2022-11-13T11:54:53.632Z,13.5
2022-11-13T11:59:08.147Z,10.1
2022-11-13T12:01:13.918Z,9.3
2022-11-13T12:03:19.662Z,8.4
2022-11-13T12:05:25.440Z,18.4
2022-11-13T12:07:31.214Z,13.5
2022-11-13T12:13:51.446Z,10.5
2022-11-13T12:15:57.252Z,17.1
2022-11-13T12:18:03.071Z,11
2022-11-13T12:20:08.777Z,10.5
2022-11-13T12:22:14.598Z,14
2022-11-13T12:28:38.410Z,13.5
2022-11-13T12:32:46.422Z,11.9
2022-11-13T12:34:52.202Z,11.3
2022-11-13T12:36:57.954Z,12
2022-11-13T12:39:03.762Z,12.6
2022-11-13T12:41:09.501Z,11.5
2022-11-13T12:45:24.019Z,18.3
2022-11-13T12:47:29.811Z,12.3
2022-11-13T12:48:34.156Z,9.6
2022-11-13T12:50:39.968Z,10.5
2022-11-13T12:52:45.737Z,10
2022-11-13T12:54:51.513Z,9.1
2022-11-13T12:59:30.487Z,11.3
2022-11-13T13:05:23.403Z,10.5
2022-11-13T13:07:29.213Z,14.6
2022-11-13T13:09:34.977Z,13.5
2022-11-13T13:11:43.727Z,10.8
2022-11-13T13:13:49.512Z,13.8
2022-11-13T13:18:01.150Z,16.3
2022-11-13T13:20:06.934Z,9.9
2022-11-13T13:22:12.738Z,8.8
2022-11-13T13:24:18.485Z,7.4
2022-11-13T13:26:27.264Z,8.8
2022-11-13T13:28:33.059Z,8.5
2022-11-13T13:32:44.620Z,10.7
2022-11-13T13:34:50.445Z,13.1
2022-11-13T13:36:56.202Z,12.5
2022-11-13T13:41:10.748Z,11.9
2022-11-13T13:43:16.557Z,11.4
2022-11-13T13:45:25.530Z,18.3
2022-11-13T13:46:26.718Z,9.6
2022-11-13T13:48:32.927Z,10.6
2022-11-13T13:50:38.312Z,12.1
2022-11-13T13:52:44.079Z,14.7
2022-11-13T13:54:52.862Z,9.5
2022-11-13T13:56:58.783Z,8.8
2022-11-13T13:59:04.447Z,22.7
2022-11-13T14:01:18.722Z,12.4
2022-11-13T14:03:16.053Z,15.9
2022-11-13T14:05:21.847Z,19.3
2022-11-13T14:07:27.706Z,12.4
2022-11-13T14:09:38.030Z,12.3
2022-11-13T14:11:43.755Z,9.3
2022-11-13T14:13:49.576Z,15.2
2022-11-13T14:15:55.359Z,15
2022-11-13T14:24:21.520Z,12.3
2022-11-13T14:26:27.328Z,12.2
2022-11-13T14:28:33.145Z,15.1
2022-11-13T14:30:38.940Z,9
2022-11-13T14:32:47.142Z,14.2
2022-11-13T14:34:50.508Z,18.5
2022-11-13T14:36:56.318Z,12.2
2022-11-13T14:39:05.037Z,11.5
2022-11-13T14:45:45.679Z,12.9
2022-11-13T14:47:51.476Z,14.4
2022-11-13T14:49:57.276Z,19.2
2022-11-13T14:52:06.050Z,12.9
2022-11-13T14:54:11.834Z,12.5
2022-11-13T14:56:17.651Z,13.8
2022-11-13T14:58:23.419Z,16.1
2022-11-13T15:00:29.198Z,17.5
2022-11-13T15:02:35.006Z,9.9
2022-11-13T15:04:41.019Z,15.6
2022-11-13T15:06:49.577Z,15.8
2022-11-13T15:08:55.323Z,21.5
2022-11-13T15:15:12.684Z,16.4
2022-11-13T15:17:18.473Z,26.2
2022-11-13T15:19:24.252Z,12.2
2022-11-13T15:21:33.025Z,32.2
2022-11-13T15:23:38.771Z,20.8
2022-11-13T15:25:44.590Z,24.9
2022-11-13T15:27:50.347Z,29.5
2022-11-13T15:29:56.122Z,18.6
2022-11-13T15:32:01.911Z,21.1
2022-11-13T15:34:07.699Z,32.4
2022-11-13T15:36:16.440Z,18.6
2022-11-13T15:38:22.236Z,16.7
2022-11-13T15:40:27.996Z,20.7
2022-11-13T15:45:44.524Z,17.5
2022-11-13T15:47:49.724Z,22.5
2022-11-13T15:50:13.958Z,25.7
2022-11-13T15:52:04.226Z,35.4
2022-11-13T15:54:09.986Z,21.1
2022-11-13T15:56:15.756Z,19.4
2022-11-13T15:58:21.502Z,21.8
2022-11-13T16:00:27.288Z,28.9
2022-11-13T16:02:33.050Z,31.3
2022-11-13T16:04:55.398Z,54.5
2022-11-13T16:06:47.607Z,30.1
2022-11-13T16:08:53.290Z,43.5
2022-11-13T16:10:59.049Z,53.7
2022-11-13T16:13:04.805Z,52.3
2022-11-13T16:15:10.545Z,35
2022-11-13T16:17:16.297Z,37.4
2022-11-13T16:19:25.038Z,29.9
2022-11-13T16:21:30.791Z,22.1
2022-11-13T16:23:36.536Z,29
2022-11-13T16:27:48.046Z,31.1
2022-11-13T16:29:53.803Z,41.3
2022-11-13T16:31:59.531Z,31.9
2022-11-13T16:34:08.371Z,29.6
2022-11-13T16:36:14.117Z,36.8
2022-11-13T16:38:19.896Z,25.8
2022-11-13T16:39:24.242Z,27.2
2022-11-13T16:43:35.755Z,33.1
2022-11-13T16:47:50.230Z,26.6
2022-11-13T16:49:55.971Z,23.5
2022-11-13T16:52:01.811Z,23
2022-11-13T16:54:07.559Z,202
2022-11-13T16:56:13.294Z,60.8
2022-11-13T16:58:19.153Z,46.5
2022-11-13T17:00:24.997Z,39.3
2022-11-13T17:02:33.783Z,30.3
2022-11-13T17:04:39.649Z,35.3
2022-11-13T17:06:45.559Z,31
2022-11-13T17:08:51.308Z,29.4
2022-11-13T17:10:57.042Z,26.7
2022-11-13T17:13:02.876Z,34.3
2022-11-13T17:15:08.709Z,26.4
2022-11-13T17:17:17.620Z,28.9
2022-11-13T17:19:23.444Z,36.7
2022-11-13T17:21:29.263Z,40.6
2022-11-13T17:23:35.097Z,47.8
2022-11-13T17:25:40.796Z,46.3
2022-11-13T17:27:46.639Z,55.4
2022-11-13T17:29:52.484Z,48.2
2022-11-13T17:37:18.800Z,55.3
2022-11-13T17:39:23.284Z,42
2022-11-13T17:41:29.129Z,32.1
2022-11-13T17:43:34.903Z,26.5
2022-11-13T17:45:43.788Z,41.5
2022-11-13T17:47:49.609Z,30.6
2022-11-13T17:49:55.449Z,33.1
2022-11-13T17:52:01.232Z,36.6
2022-11-13T17:54:07.046Z,34.8
2022-11-13T17:56:12.829Z,50
2022-11-13T17:58:18.664Z,51.5
2022-11-13T18:00:27.490Z,35.5
2022-11-13T18:02:33.299Z,49.4
2022-11-13T18:04:39.103Z,102.7
2022-11-13T18:06:44.916Z,57.3
2022-11-13T18:08:50.734Z,54
2022-11-13T18:10:56.510Z,43.5
2022-11-13T18:13:02.329Z,41.9
2022-11-13T18:15:11.168Z,65.1
2022-11-13T18:17:16.965Z,45.9
2022-11-13T18:19:22.758Z,45.6
2022-11-13T18:21:28.582Z,49.4
2022-11-13T18:23:34.359Z,51.1
2022-11-13T18:25:40.137Z,48.1
2022-11-13T18:27:45.921Z,56.4
2022-11-13T18:29:54.755Z,55.6
2022-11-13T18:32:00.536Z,42.8
2022-11-13T18:34:06.334Z,64
2022-11-13T18:38:43.665Z,61.4
2022-11-13T18:40:49.446Z,50.7
2022-11-13T18:42:58.314Z,44.8
2022-11-13T18:45:06.224Z,48.3
2022-11-13T18:57:41.832Z,55.4
2022-11-13T18:59:47.606Z,50.8
2022-11-13T19:01:53.457Z,56.4
2022-11-13T19:04:21.601Z,49.8
2022-11-13T19:10:16.436Z,46.7
2022-11-13T19:16:36.783Z,61.3
2022-11-13T19:20:48.320Z,49.2
2022-11-13T19:22:54.080Z,47.1
2022-11-13T19:27:08.813Z,73.4
2022-11-13T19:29:14.406Z,52.6
2022-11-13T19:31:20.195Z,52.6
2022-11-13T19:32:24.592Z,74.1
2022-11-13T19:34:30.376Z,50.5
2022-11-13T19:36:36.122Z,53.9
2022-11-13T19:38:41.866Z,66.3
2022-11-13T19:42:56.464Z,105.4
2022-11-13T19:45:02.351Z,107.9
2022-11-13T19:47:07.968Z,93
2022-11-13T19:49:13.733Z,102.6
2022-11-13T19:51:19.487Z,98.7
2022-11-13T19:53:25.193Z,105.1
2022-11-13T19:55:34.001Z,80.4
2022-11-13T19:57:44.829Z,69.1
2022-11-13T19:59:45.506Z,67
2022-11-13T20:01:51.273Z,73.1
2022-11-13T20:03:56.981Z,74.6
2022-11-13T20:06:02.708Z,71.8
2022-11-13T20:08:08.464Z,66.7
2022-11-13T20:10:17.266Z,67.9
2022-11-13T20:12:24.618Z,56.7
2022-11-13T20:14:34.361Z,71.4
2022-11-13T20:16:36.078Z,59.8
2022-11-13T20:22:53.265Z,63.1
2022-11-13T20:25:02.116Z,52
2022-11-13T20:27:07.956Z,54.4
2022-11-13T20:29:13.545Z,61.1
2022-11-13T20:30:17.979Z,64.9
2022-11-13T20:32:23.706Z,55.3
2022-11-13T20:36:35.180Z,63.7
2022-11-13T20:38:43.961Z,63.8
2022-11-13T20:40:49.707Z,57.7
2022-11-13T20:42:55.439Z,65.1
2022-11-13T20:45:01.631Z,67.7
2022-11-13T20:47:06.893Z,57.7
2022-11-13T20:49:12.631Z,64
2022-11-13T20:51:18.380Z,58.3
2022-11-13T20:53:27.175Z,58.9
2022-11-13T20:55:32.894Z,60.4
2022-11-13T20:57:41.075Z,46.1
2022-11-13T21:10:16.075Z,47.2
2022-11-13T21:12:21.839Z,51.4
2022-11-13T21:14:27.554Z,50.8
2022-11-13T21:20:44.727Z,50.8
2022-11-13T21:22:53.529Z,64.5
2022-11-13T21:24:59.279Z,59.6
2022-11-13T21:27:04.992Z,56.5
2022-11-13T21:28:09.407Z,48.5
2022-11-13T21:30:15.129Z,46.7
2022-11-13T21:32:20.860Z,48.8
2022-11-13T21:36:35.385Z,42
2022-11-13T21:40:46.840Z,40.2
2022-11-13T21:44:58.291Z,36
2022-11-13T21:47:04.002Z,36.5
2022-11-13T21:49:09.750Z,37.7
2022-11-13T21:51:18.547Z,45.4
2022-11-13T21:53:24.250Z,38
2022-11-13T21:55:29.992Z,39
2022-11-13T21:57:35.685Z,39.4
2022-11-13T21:59:41.420Z,36.9
2022-11-13T22:01:47.202Z,36.6
2022-11-13T22:03:52.898Z,36.9
2022-11-13T22:06:01.639Z,31.5
2022-11-13T22:08:07.386Z,38.2
2022-11-13T22:10:13.111Z,38
2022-11-13T22:12:18.807Z,41.8
2022-11-13T22:14:24.547Z,39.4
2022-11-13T22:16:30.259Z,34.4
2022-11-13T22:18:35.984Z,39
2022-11-13T22:20:44.766Z,49
2022-11-13T22:24:56.216Z,40.6
2022-11-13T22:27:27.765Z,39
2022-11-13T22:29:33.510Z,47.3
2022-11-13T22:31:39.195Z,44.9
2022-11-13T22:33:50.476Z,35.1
2022-11-13T22:37:59.431Z,37.9
2022-11-13T22:40:05.126Z,39.1
2022-11-13T22:42:10.857Z,46.3
2022-11-13T22:44:16.554Z,45.1
2022-11-13T22:46:22.293Z,53.3
2022-11-13T22:48:31.455Z,51.6
2022-11-13T22:50:36.785Z,42.6
2022-11-13T22:52:42.511Z,54.3
2022-11-13T22:54:48.192Z,45.7
2022-11-13T22:56:53.909Z,45.8
2022-11-13T22:58:59.598Z,45.8
2022-11-13T23:01:05.323Z,43.4
2022-11-13T23:03:14.133Z,47.9
2022-11-13T23:05:19.808Z,57.4
2022-11-13T23:07:25.576Z,50.2
2022-11-13T23:09:31.210Z,62.7
2022-11-13T23:11:36.902Z,61.5
2022-11-13T23:13:42.628Z,57.8
2022-11-13T23:15:48.322Z,53.9
2022-11-13T23:17:57.101Z,55.2
2022-11-13T23:20:02.786Z,56.2
2022-11-13T23:22:08.453Z,54.9
2022-11-13T23:25:18.536Z,58.5
2022-11-13T23:27:24.255Z,72.4
2022-11-13T23:29:29.980Z,71.6
2022-11-13T23:31:38.718Z,66.3
2022-11-13T23:33:44.410Z,58.9
2022-11-13T23:35:50.114Z,71.9
2022-11-13T23:37:55.795Z,69.3
2022-11-13T23:40:01.507Z,75.9
2022-11-13T23:42:07.181Z,71.3
2022-11-13T23:46:21.640Z,70.1
2022-11-13T23:52:38.675Z,84.6
2022-11-13T23:54:44.371Z,74.3
2022-11-13T23:56:50.061Z,77.4
2022-11-13T23:58:55.753Z,75.4
